CheckWX is a tool to help pilots better visualize weather data.  It is not intended as a substitute for an official pre-flight weather briefing.

21:07:41 UTC

KCXP METAR
Carson Airport
Carson City, Nevada, USA
Current

13 mins ago

KCXP 182055Z AUTO 33007KT 10SM BKN037 OVC047 M02/M09 A3013 RMK AO2
Observed
Feb-18 @ 20:55 UTC
Wind
  • 330° at 7 KTS
Visibility
10 SM
Flight Rules
VFR
Cloud Levels
  • Broken at 3,700' AGL
  • Overcast at 4,700' AGL
Temperature
-2°C / 28°F
Dewpoint
-9°C / 16°F
Humidity
59%
Altimeter
30.13" Hg
Pressure
1020.32 hPa
Previous

33 mins ago

KCXP 182035Z AUTO 33010KT 10SM BKN039 OVC048 M02/M08 A3014 RMK AO2
Observed
Feb-18 @ 20:35 UTC
Wind
  • 330° at 10 KTS
Visibility
10 SM
Flight Rules
VFR
Cloud Levels
  • Broken at 3,900' AGL
  • Overcast at 4,800' AGL
Temperature
-2°C / 28°F
Dewpoint
-8°C / 18°F
Humidity
64%
Altimeter
30.14" Hg
Pressure
1020.62 hPa
Previous

53 mins ago

KCXP 182015Z AUTO 34009KT 10SM FEW037 OVC049 M02/M08 A3014 RMK AO2
Observed
Feb-18 @ 20:15 UTC
Wind
  • 340° at 9 KTS
Visibility
10 SM
Flight Rules
VFR
Cloud Levels
  • Few at 3,700' AGL
  • Overcast at 4,900' AGL
Temperature
-2°C / 28°F
Dewpoint
-8°C / 18°F
Humidity
64%
Altimeter
30.14" Hg
Pressure
1020.62 hPa